M I D A S
Marine Information and Data Acquisition System
Tripno 1898 of the Zeeleeuw from 2010-06-10 07:17:39 to 2010-06-10 16:38:57
Back to CruiseResearch ActivitiesStationsMapUnderway DataData graphs

EquipmentUnitsComment
TimeDGPSUTC
LatitudeDGPSDM.mWGS84
LongitudeDGPSDM.mWGS84
TemperatureSBE03/SBE38deg celciusITS90
ConductivitySBE21S/mITS90
SalinitySBE21 Practical Salinity Units
ChlorophylAChelsea fluorimeterg/lCalibrated in Aceton
Missing or incorrect values are displayed as -999
Sea surface data collected by the RV Zeeleeuw from 2010-06-10 07:52:38 to 2010-06-10 16:42:46
Time Latitude Longitude Temperature Conductivity Salinity ChlorophylA
2010-06-10 07:53:46 51°13.675 2°55.871 20.5477 0.281795 1.633661 -1.035392
2010-06-10 07:54:46 51°13.71 2°55.764 20.5647 0.281795 1.633688 -1.000568
2010-06-10 07:55:46 51°13.78 2°55.671 20.5745 0.281795 1.633661 -1.035392
2010-06-10 07:56:46 51°13.852 2°55.611 20.5841 0.281795 1.633581 -1.000568
2010-06-10 07:57:46 51°13.911 2°55.602 20.5874 0.281795 1.633661 -1.035392
2010-06-10 07:58:44 51°13.946 2°55.626 20.5775 0.281795 1.633581 -1.000568
2010-06-10 07:59:43 51°13.953 2°55.625 20.541 0.281795 1.633527 -1.035392
2010-06-10 08:00:43 51°13.978 2°55.558 20.5868 0.281899 1.634246 -1.000568
2010-06-10 08:01:43 51°14.089 2°55.462 20.5592 0.281899 1.634219 -0.965744
2010-06-10 08:02:42 51°14.234 2°55.349 20.5419 0.281899 1.634219 -1.000568
2010-06-10 08:03:43 51°14.394 2°55.205 20.5103 0.281899 1.6343 -1.000568
2010-06-10 08:04:43 51°14.564 2°55.012 20.5308 0.281899 1.634246 -1.000568
2010-06-10 08:05:43 51°14.743 2°54.818 20.4952 0.281899 1.6343 -1.000568
2010-06-10 08:06:43 51°14.917 2°54.616 20.5179 0.281899 1.633897 -1.000568
2010-06-10 08:07:42 51°15.081 2°54.406 20.5294 0.281899 1.634219 -0.965744
2010-06-10 08:08:43 51°15.25 2°54.184 20.5063 0.282003 1.634939 -1.000568
2010-06-10 08:09:42 51°15.413 2°53.972 20.5286 0.282003 1.635046 -0.965744
2010-06-10 08:10:42 51°15.578 2°53.755 20.5042 0.282003 1.6351 -1.000568
2010-06-10 08:11:42 51°15.762 2°53.586 20.5174 0.282108 1.635846 -1.000568
2010-06-10 08:12:42 51°15.957 2°53.456 20.5439 0.282108 1.635846 -1.000568
2010-06-10 08:13:42 51°16.15 2°53.323 20.547 0.282108 1.635954 -1.000568
2010-06-10 08:14:42 51°16.343 2°53.191 20.5562 0.282108 1.636034 -1.000568
2010-06-10 08:15:42 51°16.536 2°53.058 20.5555 0.282108 1.636088 -0.965744
2010-06-10 08:16:43 51°16.731 2°52.923 20.5486 0.282108 1.636142 -1.000568
2010-06-10 08:17:43 51°16.921 2°52.791 20.5659 0.282212 1.636835 -1.000568
2010-06-10 08:18:43 51°17.112 2°52.66 20.5773 0.282108 1.63633 -1.000568
2010-06-10 08:19:42 51°17.311 2°52.643 20.5885 0.282212 1.636942 -0.965744
2010-06-10 08:20:42 51°17.482 2°52.828 20.6055 0.282212 1.637211 -1.000568
2010-06-10 08:21:42 51°17.634 2°53.059 20.6224 0.282212 1.637319 -0.965744
2010-06-10 08:22:42 51°17.735 2°53.357 20.6249 0.282212 1.63748 -1.000568
2010-06-10 08:23:42 51°17.832 2°53.659 20.6324 0.282212 1.637507 -0.965744
2010-06-10 08:24:43 51°17.933 2°53.963 20.6503 0.282212 1.637615 -1.035392
2010-06-10 08:25:42 51°18.033 2°54.254 20.6498 0.282212 1.637669 -1.000568
2010-06-10 08:26:43 51°18.137 2°54.556 20.6565 0.282212 1.637696 -0.965744
2010-06-10 08:27:42 51°18.238 2°54.846 20.6684 0.282212 1.63775 -0.965744
2010-06-10 08:28:43 51°18.351 2°55.137 20.6674 0.282212 1.63783 -1.000568
2010-06-10 08:29:42 51°18.471 2°55.409 20.6713 0.282212 1.637857 -0.965744
2010-06-10 08:30:42 51°18.593 2°55.686 20.6872 0.282212 1.637965 -1.000568
2010-06-10 08:31:42 51°18.714 2°55.965 20.6851 0.282108 1.63738 -1.000568
2010-06-10 08:32:42 51°18.834 2°56.243 20.6887 0.282108 1.63738 -1.035392
2010-06-10 08:33:43 51°18.957 2°56.525 20.7169 0.282108 1.63746 -1.000568
2010-06-10 08:34:42 51°19.076 2°56.799 20.7219 0.282108 1.637514 -1.000568
2010-06-10 08:35:43 51°19.2 2°57.081 20.7265 0.282108 1.637568 -1.000568
2010-06-10 08:36:42 51°19.318 2°57.355 20.7411 0.282108 1.637568 -1.000568
2010-06-10 08:37:42 51°19.441 2°57.633 20.7423 0.282108 1.637622 -1.000568
2010-06-10 08:38:42 51°19.559 2°57.92 20.7454 0.282108 1.637595 -1.000568
2010-06-10 08:39:43 51°19.667 2°58.227 20.7618 0.282004 1.636982 -1.000568
2010-06-10 08:40:42 51°19.772 2°58.524 20.7607 0.282004 1.636982 -1.035392
2010-06-10 08:41:43 51°19.882 2°58.83 20.7853 0.282004 1.636982 -1.000568
2010-06-10 08:42:42 51°19.988 2°59.128 20.7738 0.282004 1.636955 -1.000568
2010-06-10 08:43:43 51°20.068 2°59.458 20.7965 0.282004 1.636928 -1.000568
2010-06-10 08:44:43 51°20.139 2°59.791 20.8043 0.282004 1.636982 -1.000568
2010-06-10 08:45:42 51°20.21 3°0.117 20.8031 0.282004 1.636982 -1.000568
2010-06-10 08:46:42 51°20.282 3°0.448 20.8031 0.282004 1.637063 -1.000568
2010-06-10 08:47:42 51°20.356 3°0.781 20.8236 0.281899 1.636424 -0.965744
2010-06-10 08:48:42 51°20.432 3°1.114 20.8176 0.281899 1.636397 -1.000568
2010-06-10 08:49:43 51°20.509 3°1.453 20.8396 0.281899 1.63645 -1.000568
2010-06-10 08:50:43 51°20.586 3°1.786 20.8533 0.281899 1.636504 -1.000568
2010-06-10 08:51:42 51°20.663 3°2.115 20.8483 0.281899 1.636585 -1.000568
2010-06-10 08:52:42 51°20.741 3°2.45 20.8698 0.281899 1.636693 -1.000568
2010-06-10 08:53:43 51°20.819 3°2.792 20.8742 0.281899 1.636693 -1.000568
2010-06-10 08:54:43 51°20.899 3°3.128 20.8809 0.281899 1.636747 -1.000568
2010-06-10 08:55:43 51°20.977 3°3.465 20.8968 0.281899 1.636827 -1.000568
2010-06-10 08:56:43 51°21.057 3°3.802 20.893 0.281899 1.636854 -1.000568
2010-06-10 08:57:43 51°21.138 3°4.139 20.9117 0.281899 1.636962 -1.000568
2010-06-10 08:58:43 51°21.219 3°4.477 20.9166 0.281899 1.637016 -1.000568
2010-06-10 08:59:43 51°21.299 3°4.817 20.9123 0.281899 1.63707 -1.000568
2010-06-10 09:00:42 51°21.378 3°5.151 20.9302 0.281899 1.637151 -0.965744
2010-06-10 09:01:42 51°21.459 3°5.493 20.9413 0.281899 1.637259 -0.965744
2010-06-10 09:02:43 51°21.541 3°5.842 20.9442 0.281795 1.636646 -1.000568
2010-06-10 09:03:42 51°21.621 3°6.183 20.9554 0.281795 1.6367 -0.965744
2010-06-10 09:04:43 51°21.705 3°6.534 20.9489 0.281899 1.63742 -0.965744
2010-06-10 09:05:43 51°21.778 3°6.885 20.9739 0.281899 1.637393 -0.965744
2010-06-10 09:06:43 51°21.844 3°7.241 20.9752 0.281899 1.637447 -1.000568
2010-06-10 09:07:42 51°21.899 3°7.596 20.9974 0.281795 1.636969 -1.000568
2010-06-10 09:08:42 51°21.955 3°7.96 20.9955 0.281795 1.637023 -0.965744
2010-06-10 09:09:42 51°21.999 3°8.33 20.987 0.281795 1.637131 -0.965744
2010-06-10 09:10:43 51°22.037 3°8.709 20.9995 0.281795 1.637212 -1.000568
2010-06-10 09:11:43 51°22.076 3°9.084 21.0208 0.281795 1.637293 -1.000568
2010-06-10 09:12:43 51°22.114 3°9.459 21.0114 0.281795 1.6374 -0.965744
2010-06-10 09:13:43 51°22.154 3°9.836 15.7837 0.59262 3.565755 0.044153
2010-06-10 09:14:43 51°22.198 3°10.214 15.5443 3.858698 30.224175 0.914755
2010-06-10 09:15:43 51°22.269 3°10.58 15.4978 3.831805 30.224016 0.740634
2010-06-10 09:16:43 51°22.349 3°10.914 15.5212 3.816829 30.133116 0.879931
2010-06-10 09:17:43 51°22.428 3°11.186 15.4949 3.813981 30.121808 0.949579
2010-06-10 09:18:43 51°22.492 3°11.387 15.4772 3.816619 30.171276 0.775459
2010-06-10 09:19:43 51°22.507 3°11.462 15.4843 3.805122 30.077068 0.775459
2010-06-10 09:20:45 51°22.494 3°11.493 15.4296 3.799111 30.022521 0.914755
2010-06-10 09:21:45 51°22.481 3°11.511 15.4576 3.797213 30.036618 1.123699
2010-06-10 09:22:43 51°22.474 3°11.532 15.4525 3.808181 30.121677 1.054051
2010-06-10 09:23:42 51°22.47 3°11.559 15.4484 3.802697 30.076865 0.879931
2010-06-10 09:24:43 51°22.464 3°11.591 15.4554 3.813771 30.178305 0.879931
2010-06-10 09:25:42 51°22.457 3°11.625 15.4774 3.808603 30.130538 0.601338
2010-06-10 09:26:43 51°22.449 3°11.66 15.4808 3.813877 30.163191 0.53169
2010-06-10 09:27:43 51°22.441 3°11.696 15.4834 3.812822 30.144757 0.636162
2010-06-10 09:28:43 51°22.433 3°11.735 15.4651 3.815037 30.163661 0.775459
2010-06-10 09:29:43 51°22.425 3°11.776 15.4643 3.817885 30.200741 0.949579
2010-06-10 09:30:42 51°22.416 3°11.817 15.4602 3.81799 30.205683 1.088875
2010-06-10 09:31:43 51°22.405 3°11.88 15.4918 3.817146 30.2017 1.088875
2010-06-10 09:32:42 51°22.41 3°11.984 15.5465 3.810185 30.10672 1.123699
2010-06-10 09:33:43 51°22.466 3°12.049 15.4722 3.801852 30.00961 1.019227
2010-06-10 09:34:42 51°22.558 3°11.954 15.4612 3.814404 30.176996 0.949579
2010-06-10 09:35:43 51°22.694 3°11.801 15.4336 3.815037 30.184857 0.879931
2010-06-10 09:36:42 51°22.821 3°11.658 15.4335 3.819045 30.237359 0.984403
2010-06-10 09:37:43 51°22.897 3°11.557 15.3839 3.820733 30.260848 0.775459
2010-06-10 09:38:43 51°22.928 3°11.446 15.3933 3.820944 30.293235 0.845107
2010-06-10 09:39:43 51°22.979 3°11.252 15.384 3.824847 30.327652 0.949579
2010-06-10 09:40:43 51°23.044 3°11.04 15.361 3.822632 30.311579 1.019227
2010-06-10 09:41:42 51°23.119 3°10.838 15.3651 3.831175 30.40026 1.019227
2010-06-10 09:42:43 51°23.205 3°10.634 15.3495 3.836133 30.440544 0.845107
2010-06-10 09:43:42 51°23.287 3°10.436 15.3329 3.839086 30.482875 0.914755
2010-06-10 09:44:43 51°23.359 3°10.337 15.307 3.839719 30.501255 0.810283
2010-06-10 09:45:42 51°23.427 3°10.32 15.304 3.841934 30.537137 0.566514
2010-06-10 09:46:43 51°23.492 3°10.332 15.2623 3.843517 30.556376 0.496866
2010-06-10 09:47:42 51°23.553 3°10.373 15.2108 3.844255 30.595025 0.636162
2010-06-10 09:48:43 51°23.614 3°10.459 15.149 3.844362 30.642808 0.810283
2010-06-10 09:49:43 51°23.655 3°10.563 15.1349 3.841409 30.65535 1.054051
2010-06-10 09:50:43 51°23.684 3°10.665 15.1408 3.840671 30.659375 0.949579
2010-06-10 09:51:43 51°23.709 3°10.764 15.1428 3.841515 30.663341 1.019227
2010-06-10 09:52:43 51°23.732 3°10.865 15.1494 3.841936 30.665324 1.158523
2010-06-10 09:53:43 51°23.757 3°10.968 15.1518 3.843624 30.673843 1.158523
2010-06-10 09:54:43 51°23.787 3°11.074 15.166 3.84394 30.676065 1.088875
2010-06-10 09:55:43 51°23.817 3°11.182 15.1676 3.844679 30.67145 0.949579
2010-06-10 09:56:43 51°23.849 3°11.291 15.1523 3.842675 30.654249 1.054051
2010-06-10 09:57:43 51°23.879 3°11.4 15.1401 3.84394 30.674889 1.054051
2010-06-10 09:58:43 51°23.909 3°11.512 15.1619 3.84489 30.690378 1.019227
2010-06-10 09:59:43 51°23.934 3°11.629 15.1758 3.846366 30.688783 0.914755
2010-06-10 10:00:43 51°23.954 3°11.752 15.1895 3.846683 30.684537 0.914755
2010-06-10 10:01:43 51°23.966 3°11.877 15.1906 3.843834 30.648104 0.984403
2010-06-10 10:02:43 51°23.973 3°12.003 15.2053 3.843729 30.648342 1.088875
2010-06-10 10:03:43 51°23.981 3°12.129 15.1969 3.842991 30.631819 1.088875
2010-06-10 10:04:43 51°23.989 3°12.254 15.1907 3.841408 30.61603 0.949579
2010-06-10 10:05:43 51°23.997 3°12.38 15.2195 3.844678 30.645027 1.123699
2010-06-10 10:06:43 51°24.009 3°12.505 15.1991 3.844889 30.638688 1.123699
2010-06-10 10:07:43 51°24.02 3°12.63 15.2182 3.844573 30.641159 1.088875
2010-06-10 10:08:43 51°24.031 3°12.755 15.2182 3.844467 30.63436 1.193347
2010-06-10 10:09:43 51°24.041 3°12.877 15.2292 3.844362 30.634011 1.158523
2010-06-10 10:10:43 51°24.051 3°12.995 15.2277 3.841303 30.598695 1.158523
2010-06-10 10:11:43 51°24.059 3°13.111 15.2286 3.843412 30.611536 1.123699
2010-06-10 10:12:43 51°24.065 3°13.222 15.2376 3.844361 30.61585 1.193347
2010-06-10 10:13:43 51°24.071 3°13.33 15.2315 3.844045 30.614803 1.193347
2010-06-10 10:14:43 51°24.076 3°13.437 15.2262 3.843623 30.612235 1.158523
2010-06-10 10:15:43 51°24.083 3°13.542 15.217 3.843201 30.610838 1.262995
2010-06-10 10:16:43 51°24.089 3°13.648 15.1999 3.843729 30.632504 1.437116
2010-06-10 10:17:43 51°24.094 3°13.752 15.1993 3.843201 30.633104 1.332643
2010-06-10 10:18:43 51°24.101 3°13.854 15.1951 3.843307 30.635799 1.402292
2010-06-10 10:19:43 51°24.102 3°13.957 15.1906 3.840987 30.618149 1.402292
2010-06-10 10:20:43 51°24.094 3°14.058 15.2006 3.842885 30.636162 1.402292
2010-06-10 10:21:43 51°24.079 3°14.157 15.2067 3.841408 30.617788 1.332643
2010-06-10 10:22:43 51°24.06 3°14.248 15.2196 3.840248 30.603398 1.297819
2010-06-10 10:23:43 51°24.037 3°14.332 15.2296 3.839615 30.586664 1.297819
2010-06-10 10:24:43 51°24.01 3°14.41 15.2353 3.840037 30.582797 1.193347
2010-06-10 10:25:43 51°23.969 3°14.491 15.2417 3.838771 30.567489 1.158523
2010-06-10 10:26:43 51°23.908 3°14.532 15.2499 3.838666 30.561879 1.123699
2010-06-10 10:27:43 51°23.873 3°14.55 15.2669 3.841619 30.579856 1.158523
2010-06-10 10:28:43 51°23.853 3°14.57 15.289 3.84204 30.570154 1.123699
2010-06-10 10:29:43 51°23.841 3°14.593 15.2894 3.842884 30.561861 1.054051
2010-06-10 10:30:43 51°23.855 3°14.573 15.3383 3.842567 30.554977 1.054051
2010-06-10 10:31:43 51°23.929 3°14.595 15.3203 3.842356 30.516415 0.70581
2010-06-10 10:32:43 51°24.03 3°14.669 15.2587 3.84436 30.556843 0.879931
2010-06-10 10:33:43 51°24.134 3°14.781 15.2322 3.842462 30.5809 1.262995
2010-06-10 10:34:43 51°24.246 3°14.934 15.1874 3.84183 30.596346 1.402292
2010-06-10 10:35:43 51°24.38 3°15.119 15.1799 3.845311 30.657683 1.228171
2010-06-10 10:36:43 51°24.579 3°15.295 15.1512 3.847843 30.680141 1.088875
2010-06-10 10:37:43 51°24.796 3°15.277 15.1436 3.860078 30.818824 1.297819
2010-06-10 10:38:43 51°24.968 3°15.133 15.1945 3.867462 30.890362 1.750532
2010-06-10 10:39:43 51°25.031 3°14.84 15.2879 3.88592 30.996872 2.307717
2010-06-10 10:40:42 51°25.065 3°14.533 15.308 3.896045 31.031592 2.551485
2010-06-10 10:41:42 51°25.101 3°14.219 15.3239 3.897522 31.025729 2.551485
2010-06-10 10:42:43 51°25.164 3°13.907 15.3434 3.90058 31.03981 2.621133
2010-06-10 10:43:43 51°25.231 3°13.599 15.3349 3.904483 31.061951 2.621133
2010-06-10 10:44:43 51°25.298 3°13.29 15.279 3.90596 31.082736 2.76043
2010-06-10 10:45:43 51°25.362 3°12.979 15.2238 3.904378 31.113224 2.864902
2010-06-10 10:46:42 51°25.424 3°12.669 15.1866 3.901215 31.126775 2.830078
2010-06-10 10:47:43 51°25.489 3°12.347 15.1401 3.899 31.138079 2.93455
2010-06-10 10:48:43 51°25.551 3°12.027 15.0835 3.897524 31.162558 2.76043
2010-06-10 10:49:43 51°25.629 3°11.714 14.9545 3.894571 31.186525 2.899726
2010-06-10 10:50:42 51°25.752 3°11.453 14.9681 3.890353 31.233566 2.725606
2010-06-10 10:51:42 51°25.923 3°11.254 14.9631 3.88972 31.218278 2.830078
2010-06-10 10:52:42 51°26.104 3°11.078 14.9319 3.889826 31.228851 2.795254
2010-06-10 10:53:43 51°26.303 3°11.17 14.8976 3.889826 31.249939 2.621133
2010-06-10 10:54:42 51°26.445 3°11.446 14.8351 3.888666 31.272751 2.690782
2010-06-10 10:55:42 51°26.581 3°11.74 14.7983 3.884342 31.281173 2.586309
2010-06-10 10:56:43 51°26.719 3°12.041 14.7869 3.88371 31.306401 2.551485
2010-06-10 10:57:42 51°26.852 3°12.33 14.8175 3.882444 31.295647 2.481837
2010-06-10 10:58:42 51°26.979 3°12.635 14.8521 3.88276 31.278489 2.551485
2010-06-10 10:59:42 51°27.087 3°12.958 14.8848 3.882127 31.245592 2.481837
2010-06-10 11:00:42 51°27.094 3°13.317 14.9273 3.883709 31.233795 2.621133
2010-06-10 11:01:42 51°27.016 3°13.661 14.9806 3.885396 31.212122 2.551485
2010-06-10 11:02:42 51°26.974 3°14.012 15.0018 3.886239 31.18357 2.307717
2010-06-10 11:03:43 51°26.96 3°14.241 15.0191 3.886661 31.171723 2.447013
2010-06-10 11:04:42 51°26.945 3°14.317 15.0223 3.887188 31.165629 2.412189
2010-06-10 11:05:42 51°26.941 3°14.33 15.0243 3.888137 31.171703 2.621133
2010-06-10 11:06:42 51°26.936 3°14.34 15.0456 3.887821 31.167078 2.725606
2010-06-10 11:07:42 51°26.931 3°14.352 15.0832 3.888454 31.157735 2.586309
2010-06-10 11:08:42 51°26.925 3°14.366 15.0998 3.89225 31.165836 2.272893
2010-06-10 11:09:42 51°26.92 3°14.381 15.0962 3.893938 31.164711 2.377365
2010-06-10 11:10:42 51°26.915 3°14.397 15.081 3.8932 31.161723 2.203245
2010-06-10 11:11:42 51°26.909 3°14.424 15.0648 3.892145 31.154717 2.307717
2010-06-10 11:12:43 51°26.931 3°14.508 15.042 3.891196 31.165416 2.481837
2010-06-10 11:13:42 51°27.002 3°14.485 15.0288 3.888559 31.158676 2.516661
2010-06-10 11:14:42 51°27.032 3°14.374 15.0239 3.888876 31.171093 2.307717
2010-06-10 11:15:42 51°27.056 3°14.295 15.0188 3.888454 31.170327 2.272893
2010-06-10 11:16:43 51°27.086 3°14.226 15.0091 3.888243 31.171444 2.203245
2010-06-10 11:17:42 51°27.118 3°14.168 15.0017 3.888032 31.178563 2.307717
2010-06-10 11:18:42 51°27.153 3°14.106 14.9917 3.885923 31.16573 2.203245
2010-06-10 11:19:42 51°27.189 3°14.041 14.9841 3.88761 31.190411 2.203245
2010-06-10 11:20:42 51°27.227 3°13.973 14.9766 3.88645 31.18245 2.133597
2010-06-10 11:21:43 51°27.268 3°13.898 14.9705 3.887611 31.200029 2.168421
2010-06-10 11:22:42 51°27.309 3°13.823 14.9561 3.8874 31.203557 2.168421
2010-06-10 11:23:42 51°27.348 3°13.754 14.9452 3.887294 31.213445 2.133597
2010-06-10 11:24:42 51°27.386 3°13.685 14.933 3.886767 31.217761 2.133597
2010-06-10 11:25:42 51°27.419 3°13.61 14.92 3.886345 31.223625 2.168421
2010-06-10 11:26:42 51°27.451 3°13.533 14.8974 3.886135 31.233191 2.203245
2010-06-10 11:27:42 51°27.484 3°13.457 14.8815 3.885396 31.242871 2.168421
2010-06-10 11:28:42 51°27.517 3°13.381 14.8644 3.88508 31.253321 2.168421
2010-06-10 11:29:42 51°27.55 3°13.306 14.8571 3.884553 31.259473 2.098773
2010-06-10 11:30:42 51°27.583 3°13.231 14.8525 3.884131 31.262947 2.133597
2010-06-10 11:31:42 51°27.615 3°13.157 14.8526 3.884131 31.265365 2.098773
2010-06-10 11:32:42 51°27.647 3°13.082 14.8519 3.882549 31.253604 1.924652
2010-06-10 11:33:42 51°27.68 3°13.009 14.851 3.88392 31.265289 2.063949
2010-06-10 11:34:42 51°27.713 3°12.936 14.8519 3.883604 31.263058 2.063949
2010-06-10 11:35:42 51°27.747 3°12.863 14.8515 3.883604 31.263058 1.959476
2010-06-10 11:36:43 51°27.781 3°12.789 14.8481 3.88392 31.264684 1.959476
2010-06-10 11:37:42 51°27.811 3°12.712 14.8445 3.883393 31.263586 1.959476
2010-06-10 11:38:42 51°27.833 3°12.627 14.8417 3.883498 31.268161 2.133597
2010-06-10 11:39:42 51°27.853 3°12.539 14.8339 3.883393 31.26903 2.029124
2010-06-10 11:40:42 51°27.873 3°12.451 14.8246 3.883182 31.273191 2.029124
2010-06-10 11:41:43 51°27.887 3°12.359 14.8124 3.882866 31.278223 2.098773
2010-06-10 11:42:42 51°27.899 3°12.27 14.8016 3.88276 31.286363 1.924652
2010-06-10 11:43:42 51°27.911 3°12.179 14.7902 3.882444 31.292009 1.889828
2010-06-10 11:44:42 51°27.927 3°12.089 14.7805 3.882761 31.302733 1.855004
2010-06-10 11:45:42 51°27.957 3°12.007 14.7661 3.882339 31.308046 1.715708
2010-06-10 11:46:42 51°27.992 3°11.932 14.758 3.88255 31.320262 1.64606
2010-06-10 11:47:42 51°28.028 3°11.859 14.7522 3.88255 31.326338 1.680884
2010-06-10 11:48:42 51°28.062 3°11.782 14.7501 3.880019 31.30967 1.680884
2010-06-10 11:49:42 51°28.096 3°11.705 14.7546 3.883816 31.343181 1.64606
2010-06-10 11:50:42 51°28.131 3°11.629 14.7565 3.882972 31.331343 1.541588
2010-06-10 11:51:42 51°28.167 3°11.552 14.7607 3.882656 31.327893 1.611236
2010-06-10 11:52:43 51°28.215 3°11.476 14.7682 3.883499 31.333043 1.611236
2010-06-10 11:53:42 51°28.276 3°11.43 14.7654 3.882234 31.318028 1.541588
2010-06-10 11:54:42 51°28.342 3°11.4 14.7673 3.884238 31.336637 1.576412
2010-06-10 11:55:42 51°28.411 3°11.407 14.7646 3.88466 31.340427 1.576412
2010-06-10 11:56:42 51°28.481 3°11.448 14.7555 3.884132 31.33812 1.680884
2010-06-10 11:57:43 51°28.546 3°11.502 14.7542 3.88371 31.339801 1.680884
2010-06-10 11:58:42 51°28.575 3°11.552 14.7503 3.884554 31.350424 1.889828
2010-06-10 11:59:42 51°28.59 3°11.589 14.7472 3.883289 31.344523 2.203245
2010-06-10 12:00:42 51°28.6 3°11.615 14.7562 3.88255 31.336063 2.203245
2010-06-10 12:01:42 51°28.605 3°11.633 14.7505 3.883288 31.327502 2.098773
2010-06-10 12:02:42 51°28.607 3°11.651 14.7626 3.883394 31.341822 2.203245
2010-06-10 12:03:42 51°28.623 3°11.709 14.7464 3.883078 31.336546 2.203245
2010-06-10 12:04:42 51°28.681 3°11.736 14.7423 3.883078 31.342627 2.377365
2010-06-10 12:05:42 51°28.755 3°11.631 14.7421 3.882761 31.341608 2.377365
2010-06-10 12:06:42 51°28.885 3°11.448 14.7662 3.883078 31.343235 2.203245
2010-06-10 12:07:43 51°29.027 3°11.202 14.7857 3.884765 31.338335 1.855004
2010-06-10 12:08:43 51°29.172 3°10.945 14.7837 3.885609 31.330726 1.611236
2010-06-10 12:09:42 51°29.315 3°10.689 14.7593 3.884765 31.325579 1.367467
2010-06-10 12:10:42 51°29.462 3°10.429 14.7058 3.882656 31.327893 1.158523
2010-06-10 12:11:42 51°29.608 3°10.17 14.6343 3.878543 31.33349 1.019227
2010-06-10 12:12:43 51°29.756 3°9.907 14.5558 3.868839 31.304007 1.019227
2010-06-10 12:13:42 51°29.899 3°9.652 14.4597 3.859136 31.280568 1.054051
2010-06-10 12:14:42 51°30.045 3°9.393 14.3968 3.849539 31.264767 1.019227
2010-06-10 12:15:42 51°30.191 3°9.133 14.3405 3.844161 31.266313 1.088875
2010-06-10 12:16:42 51°30.337 3°8.876 14.2823 3.839626 31.268169 1.054051
2010-06-10 12:17:42 51°30.485 3°8.621 14.2256 3.837728 31.302594 1.123699
2010-06-10 12:18:42 51°30.631 3°8.366 14.2027 3.835514 31.318223 1.123699
2010-06-10 12:19:42 51°30.776 3°8.108 14.214 3.835409 31.338255 1.158523
2010-06-10 12:20:42 51°30.921 3°7.852 14.2412 3.837834 31.349812 1.193347
2010-06-10 12:21:42 51°31.067 3°7.598 14.2347 3.841842 31.369566 1.297819
2010-06-10 12:22:42 51°31.213 3°7.34 14.2374 3.842264 31.373401 1.228171
2010-06-10 12:23:42 51°31.36 3°7.083 14.2339 3.843319 31.38546 1.193347
2010-06-10 12:24:43 51°31.508 3°6.819 14.2343 3.844268 31.39409 1.262995
2010-06-10 12:25:42 51°31.65 3°6.564 14.2099 3.846061 31.413484 1.262995
2010-06-10 12:26:42 51°31.796 3°6.309 14.2039 3.846167 31.429302 1.228171
2010-06-10 12:27:42 51°31.943 3°6.054 14.2195 3.846167 31.431161 1.262995
2010-06-10 12:28:43 51°32.092 3°5.795 14.1901 3.848171 31.450632 1.262995
2010-06-10 12:29:42 51°32.235 3°5.547 13.9741 3.846484 31.485557 1.088875
2010-06-10 12:30:42 51°32.379 3°5.292 13.9341 3.832985 31.497593 0.914755
2010-06-10 12:31:42 51°32.53 3°5.045 13.9508 3.830033 31.50247 0.810283
2010-06-10 12:32:42 51°32.731 3°4.899 13.9667 3.831825 31.50574 0.740634
2010-06-10 12:33:42 51°32.855 3°4.636 13.8108 3.838998 31.571391 0.670986
2010-06-10 12:34:42 51°32.934 3°4.324 13.7826 3.832671 31.628453 1.054051
2010-06-10 12:35:42 51°33.037 3°4.024 13.7574 3.829402 31.623018 1.193347
2010-06-10 12:36:42 51°33.149 3°3.731 13.7551 3.832566 31.667913 1.088875
2010-06-10 12:37:42 51°33.262 3°3.435 13.7652 3.833516 31.68234 1.019227
2010-06-10 12:38:42 51°33.385 3°3.151 13.7601 3.838684 31.723557 0.949579
2010-06-10 12:39:42 51°33.514 3°2.87 13.7535 3.839949 31.740908 0.949579
2010-06-10 12:40:42 51°33.642 3°2.586 13.7444 3.841215 31.757633 1.019227
2010-06-10 12:41:42 51°33.771 3°2.305 13.7007 3.843114 31.78273 0.984403
2010-06-10 12:42:42 51°33.9 3°2.026 13.6321 3.845013 31.837127 1.054051
2010-06-10 12:43:42 51°34.031 3°1.749 13.6251 3.844065 31.878792 1.054051
2010-06-10 12:44:42 51°34.152 3°1.464 13.5362 3.84628 31.913326 0.949579
2010-06-10 12:45:42 51°34.245 3°1.153 13.517 3.84607 31.976186 1.019227
2010-06-10 12:46:42 51°34.334 3°0.835 13.5169 3.845965 31.991295 1.158523
2010-06-10 12:47:42 51°34.423 3°0.516 13.4532 3.846703 32.013595 1.088875
2010-06-10 12:48:43 51°34.507 3°0.278 13.4734 3.846598 32.044881 1.019227
2010-06-10 12:49:43 51°34.6 3°0.22 13.4839 3.847969 32.047265 0.845107
2010-06-10 12:50:43 51°34.656 3°0.267 13.4953 3.848391 32.044721 0.740634
2010-06-10 12:51:42 51°34.672 3°0.317 13.4916 3.848074 32.036624 0.740634
2010-06-10 12:52:42 51°34.679 3°0.327 13.476 3.847653 32.039166 0.914755
2010-06-10 12:53:42 51°34.683 3°0.335 13.4927 3.847125 32.040731 0.845107
2010-06-10 12:54:43 51°34.686 3°0.341 13.5267 3.848602 32.03119 0.740634
2010-06-10 12:55:43 51°34.689 3°0.347 13.5254 3.851449 32.044681 0.70581
2010-06-10 12:56:42 51°34.692 3°0.353 13.5046 3.850922 32.04689 0.740634
2010-06-10 12:57:43 51°34.695 3°0.36 13.5002 3.849235 32.043507 0.70581
2010-06-10 12:58:42 51°34.678 3°0.393 13.482 3.848918 32.04251 0.775459
2010-06-10 12:59:42 51°34.64 3°0.369 13.4456 3.84818 32.055035 1.019227
2010-06-10 13:00:42 51°34.62 3°0.266 13.4536 3.844805 32.042458 0.984403
2010-06-10 13:01:42 51°34.624 3°0.168 13.449 3.847653 32.069535 0.984403
2010-06-10 13:02:42 51°34.629 3°0.072 13.4553 3.847653 32.068241 0.984403
2010-06-10 13:03:42 51°34.635 2°59.972 13.4529 3.848075 32.070863 0.949579
2010-06-10 13:04:43 51°34.628 2°59.878 13.4521 3.848602 32.081581 0.984403
2010-06-10 13:05:42 51°34.588 2°59.82 13.4481 3.849024 32.083556 0.984403
2010-06-10 13:06:42 51°34.538 2°59.751 13.4417 3.849446 32.088119 0.949579
2010-06-10 13:07:42 51°34.492 2°59.679 13.42 3.849552 32.094925 0.984403
2010-06-10 13:08:42 51°34.443 2°59.612 13.4276 3.848603 32.10036 1.054051
2010-06-10 13:09:42 51°34.392 2°59.551 13.4523 3.84913 32.103314 1.054051
2010-06-10 13:10:42 51°34.342 2°59.492 13.4533 3.850817 32.098258 0.949579
2010-06-10 13:11:43 51°34.287 2°59.439 13.4567 3.849974 32.093015 0.949579
2010-06-10 13:12:42 51°34.233 2°59.391 13.4484 3.850923 32.097943 0.949579
2010-06-10 13:13:42 51°34.178 2°59.342 13.4584 3.850606 32.102127 1.019227
2010-06-10 13:14:42 51°34.123 2°59.292 13.4575 3.851556 32.101875 1.019227
2010-06-10 13:15:42 51°34.068 2°59.242 13.4578 3.851978 32.106438 0.984403
2010-06-10 13:16:42 51°34.014 2°59.19 13.4683 3.851239 32.096348 1.019227
2010-06-10 13:17:42 51°33.959 2°59.139 13.4716 3.850501 32.084321 1.019227
2010-06-10 13:18:42 51°33.904 2°59.086 13.482 3.848602 32.061533 1.019227
2010-06-10 13:19:42 51°33.849 2°59.033 13.4911 3.850923 32.077242 1.019227
2010-06-10 13:20:42 51°33.796 2°58.98 13.5003 3.849868 32.057122 0.984403
2010-06-10 13:21:42 51°33.742 2°58.926 13.5017 3.849024 32.043488 0.984403
2010-06-10 13:22:42 51°33.688 2°58.87 13.5047 3.849235 32.044153 1.088875
2010-06-10 13:23:42 51°33.633 2°58.813 13.5082 3.849762 32.045815 1.019227
2010-06-10 13:24:42 51°33.579 2°58.757 13.511 3.850395 32.047809 1.019227
2010-06-10 13:25:42 51°33.525 2°58.703 13.5164 3.850711 32.048161 1.019227
2010-06-10 13:26:42 51°33.477 2°58.635 13.5196 3.851133 32.05078 1.019227
2010-06-10 13:27:42 51°33.432 2°58.557 13.5158 3.851449 32.050487 0.949579
2010-06-10 13:28:42 51°33.387 2°58.479 13.516 3.851449 32.051132 1.019227
2010-06-10 13:29:42 51°33.34 2°58.403 13.5114 3.851871 32.057623 0.984403
2010-06-10 13:30:42 51°33.299 2°58.316 13.5082 3.852399 32.064448 0.984403
2010-06-10 13:31:42 51°33.266 2°58.221 13.4933 3.853348 32.077122 0.984403
2010-06-10 13:32:42 51°33.232 2°58.13 13.4947 3.856513 32.119394 0.879931
2010-06-10 13:33:42 51°33.197 2°58.039 13.4908 3.855458 32.108317 0.949579
2010-06-10 13:34:42 51°33.168 2°57.941 13.4866 3.856196 32.117753 0.879931
2010-06-10 13:35:42 51°33.167 2°57.828 13.483 3.858728 32.143825 0.914755
2010-06-10 13:36:42 51°33.195 2°57.718 13.4828 3.858939 32.149021 0.914755
2010-06-10 13:37:42 51°33.24 2°57.622 13.4796 3.858411 32.145423 0.984403
2010-06-10 13:38:42 51°33.306 2°57.559 13.4789 3.857568 32.13889 0.879931
2010-06-10 13:39:42 51°33.38 2°57.526 13.4759 3.857779 32.144086 0.914755
2010-06-10 13:40:42 51°33.455 2°57.523 13.472 3.856196 32.130052 0.845107
2010-06-10 13:41:42 51°33.522 2°57.566 13.4672 3.857462 32.145685 0.949579
2010-06-10 13:42:42 51°33.552 2°57.661 13.4682 3.856513 32.140763 0.984403
2010-06-10 13:43:42 51°33.547 2°57.725 13.4761 3.855458 32.130973 0.845107
2010-06-10 13:44:42 51°33.542 2°57.767 13.4759 3.854509 32.116335 0.879931
2010-06-10 13:45:42 51°33.542 2°57.795 13.4771 3.854403 32.114709 0.914755
2010-06-10 13:46:42 51°33.544 2°57.815 13.4789 3.854192 32.11081 0.949579
2010-06-10 13:47:42 51°33.547 2°57.832 13.4811 3.854825 32.117329 0.949579
2010-06-10 13:48:42 51°33.536 2°57.883 13.4857 3.854509 32.111804 0.879931
2010-06-10 13:49:43 51°33.441 2°57.921 13.4905 3.854298 32.105965 0.949579
2010-06-10 13:50:43 51°33.264 2°57.976 13.9194 3.854719 32.100176 0.879931
2010-06-10 13:51:43 51°33.066 2°58.032 13.9261 3.841213 31.637547 0.392394
2010-06-10 13:52:42 51°32.865 2°58.085 13.8146 3.849652 31.742721 0.427218
2010-06-10 13:53:43 51°32.656 2°58.138 13.8792 3.848176 31.770298 0.35757
2010-06-10 13:54:42 51°32.458 2°58.192 14.041 3.845538 31.703066 0.392394
2010-06-10 13:55:43 51°32.252 2°58.219 14.2505 3.832352 31.435039 0.810283
2010-06-10 13:56:41 51°32.067 2°58.141 14.2978 3.834143 31.303912 0.810283
2010-06-10 13:57:42 51°31.893 2°57.953 14.3204 3.837517 31.295139 0.845107
2010-06-10 13:58:43 51°31.725 2°57.75 14.3073 3.839204 31.29384 0.810283
2010-06-10 13:59:42 51°31.557 2°57.564 14.3109 3.840787 31.314349 0.775459
2010-06-10 14:00:43 51°31.39 2°57.363 14.3153 3.841314 31.313595 0.879931
2010-06-10 14:01:42 51°31.224 2°57.17 14.2707 3.841209 31.317562 0.845107
2010-06-10 14:02:43 51°31.055 2°56.973 14.2315 3.842369 31.358303 0.810283
2010-06-10 14:03:42 51°30.89 2°56.779 14.1953 3.842581 31.389878 0.775459
2010-06-10 14:04:42 51°30.722 2°56.58 14.1453 3.842792 31.422757 0.70581
2010-06-10 14:05:42 51°30.555 2°56.374 14.1113 3.843109 31.462881 0.636162
2010-06-10 14:06:42 51°30.389 2°56.174 14.0933 3.844375 31.502423 0.601338
2010-06-10 14:07:42 51°30.218 2°55.976 14.0895 3.845114 31.519131 0.566514
2010-06-10 14:08:43 51°30.047 2°55.769 14.0921 3.844903 31.521571 0.53169
2010-06-10 14:09:43 51°29.875 2°55.567 14.0739 3.845747 31.528649 0.496866
2010-06-10 14:10:42 51°29.703 2°55.37 14.0104 3.850915 31.608347 0.427218
2010-06-10 14:11:43 51°29.528 2°55.164 14.0388 3.848173 31.608962 0.496866
2010-06-10 14:12:42 51°29.356 2°54.965 14.0708 3.844903 31.562167 0.496866
2010-06-10 14:13:42 51°29.184 2°54.763 14.1214 3.842688 31.506968 0.601338
2010-06-10 14:14:42 51°29.012 2°54.565 14.1925 3.842476 31.475769 0.53169
2010-06-10 14:15:42 51°28.84 2°54.37 14.2098 3.840893 31.40176 0.566514
2010-06-10 14:16:43 51°28.665 2°54.164 14.1985 3.842264 31.405566 0.601338
2010-06-10 14:17:42 51°28.496 2°53.965 14.1743 3.844902 31.438238 0.601338
2010-06-10 14:18:43 51°28.32 2°53.758 14.1435 3.846273 31.469342 0.496866
2010-06-10 14:19:42 51°28.154 2°53.543 14.1279 3.848172 31.507781 0.496866
2010-06-10 14:20:43 51°28.014 2°53.266 14.0357 3.851759 31.571658 0.496866
2010-06-10 14:21:42 51°27.88 2°52.996 14.0621 3.858194 31.719483 0.496866
2010-06-10 14:22:42 51°27.743 2°52.721 14.0507 3.852708 31.615339 0.427218
2010-06-10 14:23:41 51°27.614 2°52.455 14.0743 3.859565 31.684887 0.427218
2010-06-10 14:24:42 51°27.476 2°52.182 14.0717 3.860092 31.671515 0.392394
2010-06-10 14:25:43 51°27.337 2°51.907 14.0914 3.864627 31.715465 0.322746
2010-06-10 14:26:42 51°27.199 2°51.649 14.1012 3.865893 31.711337 0.287922
2010-06-10 14:27:43 51°27.057 2°51.384 14.081 3.87085 31.752853 0.322746
2010-06-10 14:28:41 51°26.927 2°51.119 14.0209 3.874015 31.799377 0.253098
2010-06-10 14:29:43 51°26.783 2°50.839 13.9211 3.883931 31.934925 0.18345
2010-06-10 14:30:41 51°26.643 2°50.578 13.8662 3.900809 32.176982 0.044153
2010-06-10 14:31:43 51°26.496 2°50.297 13.879 3.905767 32.257849 0.009329
2010-06-10 14:32:42 51°26.358 2°50.034 13.8983 3.90851 32.270872 -0.060319
2010-06-10 14:33:42 51°26.208 2°49.777 13.9087 3.908088 32.254145 -0.025495
2010-06-10 14:34:42 51°26.022 2°49.593 13.8221 3.909037 32.262233 -0.060319
2010-06-10 14:35:42 51°25.827 2°49.433 13.8242 3.915578 32.383623 -0.095143
2010-06-10 14:36:42 51°25.632 2°49.271 13.8807 3.91389 32.368716 -0.025495
2010-06-10 14:37:43 51°25.462 2°49.036 13.8754 3.909037 32.284724 -0.025495
2010-06-10 14:38:43 51°25.346 2°48.756 13.8872 3.910409 32.297987 -0.060319
2010-06-10 14:39:42 51°25.247 2°48.504 13.8895 3.910092 32.284785 -0.025495
2010-06-10 14:40:42 51°25.182 2°48.336 13.882 3.911358 32.29643 -0.060319
2010-06-10 14:41:42 51°25.115 2°48.3 13.8797 3.912729 32.314838 -0.060319
2010-06-10 14:42:42 51°25.061 2°48.35 13.8809 3.912518 32.316759 -0.060319
2010-06-10 14:43:41 51°25.015 2°48.425 13.8809 3.912202 32.311272 0.009329
2010-06-10 14:44:43 51°24.998 2°48.464 13.8762 3.911674 32.308349 0.009329
2010-06-10 14:45:43 51°24.988 2°48.463 13.8829 3.910831 32.302513 0.009329
2010-06-10 14:46:42 51°24.978 2°48.465 13.8961 3.911885 32.309647 -0.025495
2010-06-10 14:47:43 51°24.967 2°48.468 13.8897 3.914839 32.320092 -0.060319
2010-06-10 14:48:42 51°24.957 2°48.47 13.9063 3.915577 32.335897 -0.025495
2010-06-10 14:49:42 51°24.948 2°48.468 13.849 3.916421 32.34173 0.009329
2010-06-10 14:50:42 51°24.939 2°48.467 13.8538 3.914628 32.36519 0.044153
2010-06-10 14:51:42 51°24.93 2°48.468 13.8517 3.913995 32.356779 -0.025495
2010-06-10 14:52:42 51°24.926 2°48.547 13.8218 3.913152 32.356748 0.009329
2010-06-10 14:53:42 51°24.97 2°48.743 13.8344 3.909565 32.33725 0.078977
2010-06-10 14:54:42 51°25.047 2°48.765 13.8358 3.905873 32.294851 0.044153
2010-06-10 14:55:42 51°25.062 2°48.652 13.8569 3.908194 32.312363 0.009329
2010-06-10 14:56:42 51°25.063 2°48.537 13.8676 3.910409 32.316657 -0.025495
2010-06-10 14:57:42 51°25.067 2°48.445 13.8772 3.911042 32.312823 -0.025495
2010-06-10 14:58:42 51°25.073 2°48.357 13.8777 3.909987 32.298608 -0.060319
2010-06-10 14:59:42 51°25.08 2°48.269 13.8795 3.910936 32.302841 -0.060319
2010-06-10 15:00:42 51°25.086 2°48.185 13.8677 3.911463 32.308338 -0.025495
2010-06-10 15:01:42 51°25.094 2°48.093 13.8639 3.91294 32.32837 -0.060319
2010-06-10 15:02:42 51°25.1 2°47.995 13.8637 3.913784 32.340005 -0.060319
2010-06-10 15:03:42 51°25.098 2°47.892 13.8552 3.914734 32.35197 -0.060319
2010-06-10 15:04:42 51°25.078 2°47.786 13.8503 3.915789 32.366844 -0.095143
2010-06-10 15:05:42 51°25.043 2°47.69 13.8452 3.916105 32.374922 -0.060319
2010-06-10 15:06:42 51°24.993 2°47.609 13.8419 3.917266 32.390778 -0.095143
2010-06-10 15:07:42 51°24.94 2°47.53 13.8368 3.917055 32.390126 -0.095143
2010-06-10 15:08:42 51°24.891 2°47.446 13.8159 3.916844 32.392704 -0.060319
2010-06-10 15:09:42 51°24.847 2°47.355 13.7962 3.916 32.405613 -0.060319
2010-06-10 15:10:42 51°24.801 2°47.269 13.797 3.911464 32.375424 0.009329
2010-06-10 15:11:42 51°24.75 2°47.19 13.7969 3.912097 32.382554 0.044153
2010-06-10 15:12:42 51°24.7 2°47.11 13.807 3.912308 32.383853 0.009329
2010-06-10 15:13:42 51°24.65 2°47.029 13.8109 3.909249 32.347889 0.009329
2010-06-10 15:14:42 51°24.602 2°46.944 13.8124 3.906928 32.322623 0.044153
2010-06-10 15:15:42 51°24.556 2°46.854 13.8137 3.905241 32.305776 0.044153
2010-06-10 15:16:42 51°24.511 2°46.764 13.8183 3.904502 32.297681 0.078977
2010-06-10 15:17:42 51°24.466 2°46.673 13.8232 3.903553 32.283133 0.009329
2010-06-10 15:18:42 51°24.421 2°46.583 13.8251 3.902182 32.269211 0.113802
2010-06-10 15:19:42 51°24.375 2°46.493 13.8351 3.900916 32.254331 0.078977
2010-06-10 15:20:42 51°24.33 2°46.402 13.8404 3.901549 32.253727 0.078977
2010-06-10 15:21:42 51°24.287 2°46.315 13.8405 3.901127 32.245338 0.078977
2010-06-10 15:22:42 51°24.244 2°46.228 13.8392 3.89965 32.232382 0.078977
2010-06-10 15:23:42 51°24.201 2°46.14 13.8426 3.898806 32.223969 0.113802
2010-06-10 15:24:42 51°24.158 2°46.051 13.8431 3.899544 32.228198 0.078977
2010-06-10 15:25:42 51°24.116 2°45.963 13.8358 3.900388 32.237253 0.078977
2010-06-10 15:26:42 51°24.073 2°45.875 13.836 3.8987 32.225569 0.148626
2010-06-10 15:27:42 51°24.03 2°45.786 13.8384 3.897857 32.217798 0.113802
2010-06-10 15:28:42 51°23.988 2°45.697 13.8376 3.89754 32.214242 0.148626
2010-06-10 15:29:42 51°23.959 2°45.597 13.8355 3.89754 32.214242 0.078977
2010-06-10 15:30:42 51°23.951 2°45.492 13.8317 3.897962 32.220697 0.113802
2010-06-10 15:31:42 51°23.951 2°45.389 13.8305 3.898701 32.230711 0.113802
2010-06-10 15:32:42 51°23.96 2°45.292 13.8301 3.89965 32.240098 0.113802
2010-06-10 15:33:42 51°23.978 2°45.207 13.8285 3.901021 32.254659 0.113802
2010-06-10 15:34:42 51°24.004 2°45.142 13.8285 3.901338 32.256287 0.078977
2010-06-10 15:35:42 51°24.036 2°45.099 13.8289 3.901654 32.260489 0.078977
2010-06-10 15:36:42 51°24.056 2°45.082 13.8267 3.902709 32.27085 0.044153
2010-06-10 15:37:42 51°24.059 2°45.066 13.8271 3.902709 32.273426 0.009329
2010-06-10 15:38:42 51°24.052 2°45.047 13.828 3.903025 32.275698 0.009329
2010-06-10 15:39:42 51°24.043 2°45.037 13.8275 3.903131 32.27345 0.009329
2010-06-10 15:40:42 51°24.016 2°45.086 13.829 3.902287 32.26632 0.009329
2010-06-10 15:41:42 51°23.958 2°45.267 13.8319 3.900599 32.263646 0.044153
2010-06-10 15:42:42 51°23.879 2°45.561 13.8459 3.899861 32.25298 0.078977
2010-06-10 15:43:42 51°23.79 2°45.866 13.8981 3.895747 32.204796 0.078977
2010-06-10 15:44:42 51°23.7 2°46.169 13.9856 3.885831 32.057237 0.18345
2010-06-10 15:45:42 51°23.61 2°46.477 14.0655 3.880028 31.938459 0.18345
2010-06-10 15:46:42 51°23.509 2°46.776 14.131 3.874332 31.824952 0.287922
2010-06-10 15:47:42 51°23.355 2°47.014 14.1352 3.874225 31.779915 0.35757
2010-06-10 15:48:42 51°23.173 2°47.213 14.1255 3.873381 31.764667 0.322746
2010-06-10 15:49:42 51°22.985 2°47.405 14.0709 3.872432 31.75851 0.35757
2010-06-10 15:50:42 51°22.8 2°47.603 14.1187 3.873593 31.799297 0.35757
2010-06-10 15:51:42 51°22.618 2°47.808 14.1346 3.86969 31.731582 0.392394
2010-06-10 15:52:42 51°22.435 2°48.008 14.1753 3.866631 31.684856 0.462042
2010-06-10 15:53:42 51°22.254 2°48.21 14.2644 3.864837 31.644108 0.462042
2010-06-10 15:54:42 51°22.072 2°48.41 14.5459 3.858507 31.495654 0.601338
2010-06-10 15:55:42 51°21.897 2°48.612 14.5827 3.849855 31.209623 0.740634
2010-06-10 15:56:42 51°21.718 2°48.812 14.686 3.852596 31.193569 0.879931
2010-06-10 15:57:42 51°21.541 2°49.016 14.6733 3.848271 31.089156 0.984403
2010-06-10 15:58:42 51°21.361 2°49.211 14.5612 3.848693 31.106258 0.914755
2010-06-10 15:59:42 51°21.17 2°49.395 14.5462 3.845741 31.157908 0.740634
2010-06-10 16:00:42 51°20.979 2°49.572 14.5091 3.844686 31.165426 0.670986
2010-06-10 16:01:42 51°20.788 2°49.749 14.9962 3.844159 31.188683 0.636162
2010-06-10 16:02:42 51°20.599 2°49.926 15.2204 3.832028 30.958203 -0.652328
2010-06-10 16:03:42 51°20.414 2°50.104 15.3581 3.83055 30.859693 -0.861272
2010-06-10 16:04:42 51°20.218 2°50.257 15.4842 3.835402 30.905588 -0.791624
2010-06-10 16:05:42 51°20.023 2°50.402 15.5663 3.837089 30.921321 -0.826448
2010-06-10 16:06:42 51°19.83 2°50.549 15.7725 3.838144 30.931379 -0.826448
2010-06-10 16:08:10 51°19.533 2°50.735 15.9589 3.839093 30.939293 -0.861272
2010-06-10 16:09:49 51°19.2 2°50.97 16.2106 3.840148 30.945151 -0.861272
2010-06-10 16:10:49 51°18.998 2°51.113 16.3371 3.840675 30.94808 -0.861272
2010-06-10 16:11:49 51°18.795 2°51.256 16.4861 3.841519 30.951445 -0.861272
2010-06-10 16:12:49 51°18.594 2°51.401 16.8883 3.842257 30.953265 -0.93092
2010-06-10 16:13:49 51°18.393 2°51.547 16.9319 3.843101 30.954829 -0.93092
2010-06-10 16:14:49 51°18.193 2°51.693 17.0098 3.844156 30.958284 -0.93092
2010-06-10 16:15:49 51°17.989 2°51.821 17.0602 3.845316 30.964483 -0.93092
2010-06-10 16:16:49 51°17.782 2°51.952 17.1147 3.846476 30.967681 -0.965744
2010-06-10 16:17:49 51°17.572 2°52.087 17.1482 3.847425 30.970189 -0.93092
2010-06-10 16:18:49 51°17.359 2°52.22 17.1968 3.848796 30.977074 -0.93092
2010-06-10 16:19:49 51°17.148 2°52.351 17.2879 3.849956 30.97967 -0.93092
2010-06-10 16:20:49 51°16.94 2°52.487 17.3381 3.850906 30.982175 -0.965744
2010-06-10 16:21:49 51°16.736 2°52.639 17.4304 3.852171 30.988113 -0.965744
2010-06-10 16:22:49 51°16.529 2°52.797 17.5032 3.853437 30.993449 -0.93092
2010-06-10 16:23:49 51°16.326 2°52.958 17.5193 3.854808 30.999128 -0.896096
2010-06-10 16:24:49 51°16.129 2°53.121 17.5842 3.855546 31.000342 -0.93092
2010-06-10 16:25:49 51°15.937 2°53.296 17.6827 3.856812 31.006274 -0.93092
2010-06-10 16:26:49 51°15.749 2°53.483 17.7097 3.857867 31.009718 -0.93092
2010-06-10 16:27:49 51°15.564 2°53.68 17.7863 3.859132 31.015048 -0.93092
2010-06-10 16:28:49 51°15.388 2°53.883 17.8406 3.859976 31.016604 -0.965744
2010-06-10 16:29:49 51°15.218 2°54.098 17.9027 3.861031 31.020046 -0.93092
2010-06-10 16:30:49 51°15.066 2°54.337 17.9689 3.862191 31.023831 -0.93092
2010-06-10 16:31:49 51°14.89 2°54.545 18.045 3.863351 31.030011 -0.93092
2010-06-10 16:32:49 51°14.708 2°54.734 18.0701 3.864511 31.034393 -0.965744
2010-06-10 16:33:49 51°14.539 2°54.941 18.1365 3.865671 31.038774 -0.93092
2010-06-10 16:34:49 51°14.372 2°55.149 18.1723 3.86641 31.039983 -0.965744
2010-06-10 16:35:49 51°14.226 2°55.326 18.226 3.867675 31.045903 -0.965744
2010-06-10 16:36:49 51°14.085 2°55.445 18.2519 3.86873 31.050537 -0.965744
2010-06-10 16:37:49 51°13.94 2°55.55 18.2967 3.869679 31.052431 -0.93092
2010-06-10 16:38:49 51°13.818 2°55.642 18.3571 3.870734 31.057063 -1.000568
2010-06-10 16:39:49 51°13.734 2°55.76 18.4018 3.871789 31.061095 -0.93092
2010-06-10 16:40:49 51°13.685 2°55.868 18.4479 3.872843 31.064527 -0.93092
2010-06-10 16:41:49 51°13.668 2°55.947 18.5398 3.873898 31.069156 -0.965744